Flag for Greece

Past Weather in 39°40'10"N, 20°51'18"E, Greece — Yesterday and Last 2 Weeks

Currently: 81 °F. Sunny. (Weather station: Kerkyra Airport, Greece). See more current weather

Past Weather in 39°40'10"N, 20°51'18"E — Graph

°F

39°40'10"N, 20°51'18"E Temperature Yesterday

Maximum temperature yesterday: 97 °F (at 3:20 pm)
Minimum temperature yesterday: 77 °F (at 3:50 am)
Average temperature yesterday: 85 °F

High & Low Weather Summary for the Past Weeks

 TemperatureHumidityPressure
High102 °F (Jul 10, 1:50 pm)94% (Jul 2, 6:50 am)29.95 "Hg (Jul 2, 6:50 am)
Low68 °F (Jul 5, 5:50 am)26% (Jul 10, 1:50 pm)29.56 "Hg (Jul 3, 5:20 am)
Average84 °F63%29.81 "Hg
* Reported Jun 30 7:20 am — Jul 15 7:20 am, 39°40'10"N, 20°51'18"E. Weather by CustomWeather, © 2024

Note: Actual official high and low records may vary slightly from our data, if they occured in-between our weather recording intervals... More about our weather records

39°40'10"N, 20°51'18"E Weather History for the Previous 24 Hours

Scroll right to see more
 ConditionsComfort  
Time TempWeatherWind HumidityBarometerVisibility
7:20 am
Mon, Jul 15
77 °FSunny.No wind89%29.80 "Hg10 mi
6:50 am77 °FSunny.No wind83%29.80 "Hg10 mi
6:20 am77 °FClear.3 mph89%29.80 "Hg10 mi
5:50 am77 °FClear.No wind83%29.80 "Hg10 mi
5:20 am79 °FClear.No wind84%29.80 "Hg10 mi
4:50 am79 °FClear.No wind79%29.80 "Hg10 mi
3:50 am79 °FClear.2 mph84%29.80 "Hg10 mi
3:20 am81 °FClear.No wind79%29.80 "Hg10 mi
2:50 am81 °FClear.No wind79%29.80 "Hg10 mi
2:20 am81 °FClear.3 mph84%29.80 "Hg10 mi
1:50 am82 °FClear.3 mph79%29.80 "Hg10 mi
1:20 am82 °FClear.3 mph79%29.80 "Hg10 mi
12:50 am82 °FClear.3 mph79%29.80 "Hg10 mi
12:20 am82 °FClear.No wind79%29.80 "Hg10 mi
11:50 pm
Sun, Jul 14
82 °FClear.No wind79%29.80 "Hg10 mi
11:20 pm84 °FClear.3 mph74%29.80 "Hg10 mi
10:50 pm84 °FClear.2 mph74%29.80 "Hg10 mi
10:20 pm84 °FClear.2 mph79%29.80 "Hg10 mi
9:50 pm88 °FClear.2 mph70%29.80 "Hg10 mi
9:20 pm88 °FClear.3 mph75%29.80 "Hg10 mi
8:50 pm88 °FSunny.3 mph75%29.80 "Hg10 mi
8:20 pm88 °FPassing clouds.5 mph70%29.80 "HgN/A
7:50 pm91 °FPassing clouds.7 mph63%29.80 "HgN/A
7:20 pm91 °FPassing clouds.12 mph63%29.77 "HgN/A
6:50 pm93 °FPassing clouds.8 mph56%29.80 "HgN/A
6:20 pm93 °FPassing clouds.5 mph59%29.80 "HgN/A
5:50 pm91 °FPassing clouds.9 mph63%29.80 "HgN/A
5:20 pm93 °FPassing clouds.3 mph56%29.80 "HgN/A
3:50 pm93 °FPassing clouds.6 mph53%29.80 "HgN/A
3:20 pm97 °FPassing clouds.8 mph47%29.80 "HgN/A
2:50 pm95 °FPassing clouds.7 mph50%29.80 "HgN/A
2:20 pm95 °FPassing clouds.7 mph50%29.80 "HgN/A
1:50 pm95 °FPassing clouds.6 mph50%29.80 "HgN/A
1:20 pm95 °FPassing clouds.6 mph50%29.80 "HgN/A
12:50 pm93 °FSunny.6 mph53%29.80 "Hg10 mi
12:20 pm91 °FSunny.7 mph56%29.83 "Hg10 mi
11:50 am90 °FSunny.6 mph63%29.83 "Hg10 mi
11:20 am90 °FSunny.7 mph67%29.83 "Hg10 mi
10:50 am86 °FSunny.5 mph75%29.83 "Hg10 mi
10:20 am86 °FSunny.5 mph75%29.83 "Hg10 mi
9:50 am86 °FSunny.2 mph70%29.83 "Hg10 mi
9:20 am84 °FSunny.No wind74%29.83 "Hg10 mi
8:50 am82 °FSunny.No wind79%29.83 "Hg10 mi
8:20 am81 °FSunny.No wind79%29.80 "Hg10 mi
Weather by CustomWeather, © 2024

See weather overview